createdAt,value
2018-12-31T08:06:33.152Z,32.23
2018-12-31T08:08:38.782Z,30.17
2018-12-31T08:10:43.947Z,30.63
2018-12-31T08:12:49.168Z,31.47
2018-12-31T08:14:54.249Z,34.00
2018-12-31T08:16:59.800Z,32.47
2018-12-31T08:19:35.684Z,32.40
2018-12-31T08:21:59.204Z,31.30
2018-12-31T08:24:04.509Z,31.43
2018-12-31T08:26:09.742Z,35.10
2018-12-31T08:28:14.889Z,30.80
2018-12-31T08:30:20.117Z,32.50
2018-12-31T08:32:25.392Z,39.53
2018-12-31T08:34:31.102Z,38.87
2018-12-31T08:36:36.699Z,45.20
2018-12-31T08:38:42.122Z,38.10
2018-12-31T08:40:47.322Z,40.17
2018-12-31T08:42:52.332Z,37.37
2018-12-31T08:44:57.462Z,36.70
2018-12-31T08:47:02.632Z,33.30
2018-12-31T08:49:08.155Z,37.37
2018-12-31T08:51:13.244Z,37.40
2018-12-31T08:53:18.339Z,45.73
2018-12-31T08:55:23.454Z,36.43
2018-12-31T08:57:28.702Z,37.03
2018-12-31T08:59:33.776Z,36.40
2018-12-31T09:01:39.109Z,38.60
2018-12-31T09:03:44.437Z,37.37
2018-12-31T09:05:50.018Z,40.83
2018-12-31T09:07:55.133Z,36.53
2018-12-31T09:10:00.708Z,39.33
2018-12-31T09:12:06.140Z,38.70
2018-12-31T09:14:11.313Z,38.27
2018-12-31T09:16:16.615Z,40.60
2018-12-31T09:18:22.042Z,38.60
2018-12-31T09:20:28.433Z,37.90
2018-12-31T09:22:34.049Z,37.97
2018-12-31T09:24:44.624Z,33.47
2018-12-31T09:26:46.113Z,31.37
2018-12-31T09:28:51.529Z,38.30
2018-12-31T09:30:56.676Z,37.47
2018-12-31T09:33:05.231Z,36.00
2018-12-31T09:35:10.452Z,35.50
2018-12-31T09:37:15.503Z,37.47
2018-12-31T09:39:20.631Z,37.47
2018-12-31T09:41:25.615Z,34.73
2018-12-31T09:43:30.764Z,31.40
2018-12-31T09:45:36.156Z,31.80
2018-12-31T09:47:41.314Z,29.60
2018-12-31T09:49:46.391Z,28.80
2018-12-31T09:51:51.537Z,28.67
2018-12-31T09:53:56.676Z,30.37
2018-12-31T09:56:02.242Z,28.80
2018-12-31T09:58:08.017Z,28.20
2018-12-31T10:00:13.076Z,26.80
2018-12-31T10:02:18.677Z,30.10
2018-12-31T10:04:23.970Z,26.30
2018-12-31T10:06:29.755Z,26.33
2018-12-31T10:08:35.235Z,29.27
2018-12-31T10:10:40.390Z,27.63
2018-12-31T10:12:45.482Z,26.93
2018-12-31T10:14:50.566Z,29.53
2018-12-31T10:16:55.805Z,34.60
2018-12-31T10:19:01.040Z,31.80
2018-12-31T10:21:06.062Z,34.40
2018-12-31T10:23:11.533Z,30.83
2018-12-31T10:25:16.843Z,33.90
2018-12-31T10:27:22.201Z,32.27
2018-12-31T10:29:27.344Z,39.00
2018-12-31T10:31:32.841Z,32.60
2018-12-31T10:33:38.191Z,28.30
2018-12-31T10:35:43.401Z,27.57
2018-12-31T10:37:48.433Z,26.90
2018-12-31T10:39:54.167Z,31.33
2018-12-31T10:41:59.194Z,28.50
2018-12-31T10:44:04.465Z,28.93
2018-12-31T10:46:10.200Z,45.40
2018-12-31T10:48:15.252Z,44.50
2018-12-31T10:50:20.408Z,27.63
2018-12-31T10:52:25.942Z,27.70
2018-12-31T10:54:31.029Z,26.90
2018-12-31T10:56:36.229Z,26.07
2018-12-31T10:58:41.720Z,25.70
2018-12-31T11:00:46.895Z,32.27
2018-12-31T11:02:52.237Z,31.67
2018-12-31T11:04:57.597Z,27.47
2018-12-31T11:07:03.318Z,26.80
2018-12-31T11:09:08.572Z,29.80
2018-12-31T11:11:13.704Z,44.20
2018-12-31T11:13:18.761Z,29.10
2018-12-31T11:15:23.871Z,24.90
2018-12-31T11:17:28.976Z,24.77
2018-12-31T11:19:34.519Z,25.20
2018-12-31T11:21:39.995Z,26.23
2018-12-31T11:23:45.255Z,27.10
2018-12-31T11:25:50.174Z,24.67
2018-12-31T11:27:55.173Z,25.73
2018-12-31T11:30:00.429Z,24.83
2018-12-31T11:32:05.629Z,23.67
2018-12-31T11:34:10.555Z,22.10
2018-12-31T11:36:15.727Z,22.80
2018-12-31T11:38:21.024Z,23.60
2018-12-31T11:40:26.183Z,24.67
2018-12-31T11:42:31.198Z,24.00
2018-12-31T11:44:36.472Z,24.50
2018-12-31T11:46:41.685Z,23.50
2018-12-31T11:48:47.074Z,24.07
2018-12-31T11:50:52.456Z,24.63
2018-12-31T11:52:57.863Z,24.70
2018-12-31T11:55:03.577Z,22.73
2018-12-31T11:57:09.165Z,23.60
2018-12-31T11:59:14.372Z,24.43
2018-12-31T12:01:19.577Z,23.60
2018-12-31T12:03:25.591Z,23.00
2018-12-31T12:05:31.015Z,24.10
2018-12-31T12:07:37.062Z,23.73
2018-12-31T12:09:42.824Z,23.33
2018-12-31T12:11:49.662Z,23.40
2018-12-31T12:13:56.446Z,22.63
2018-12-31T12:16:02.367Z,23.10
2018-12-31T12:18:07.593Z,22.90
2018-12-31T12:20:12.955Z,21.73
2018-12-31T12:22:18.178Z,21.87
2018-12-31T12:24:23.746Z,23.50
2018-12-31T12:26:28.982Z,22.13
2018-12-31T12:28:34.112Z,20.97
2018-12-31T12:30:39.703Z,22.90
2018-12-31T12:32:44.842Z,24.40
2018-12-31T12:35:00.243Z,22.97
2018-12-31T12:37:06.637Z,23.73
2018-12-31T12:39:12.343Z,28.13
2018-12-31T12:41:18.207Z,27.20
2018-12-31T12:43:24.009Z,26.70
2018-12-31T12:45:29.376Z,24.87
2018-12-31T12:47:34.837Z,23.50
2018-12-31T12:49:42.326Z,22.50
2018-12-31T12:51:47.703Z,23.53
2018-12-31T12:53:53.094Z,22.33
2018-12-31T12:55:58.771Z,25.63
2018-12-31T12:58:04.290Z,29.17
2018-12-31T13:00:09.579Z,27.87
2018-12-31T13:02:14.949Z,24.57
2018-12-31T13:04:20.124Z,23.07
2018-12-31T13:06:25.366Z,22.97
2018-12-31T13:08:30.480Z,22.27
2018-12-31T13:10:36.794Z,24.23
2018-12-31T13:12:41.961Z,24.50
2018-12-31T13:14:47.193Z,23.70
2018-12-31T13:16:52.351Z,22.00
2018-12-31T13:18:58.114Z,22.07
2018-12-31T13:21:03.378Z,22.47
2018-12-31T13:23:08.963Z,23.73
2018-12-31T13:25:19.263Z,20.90
2018-12-31T13:27:24.573Z,22.47
2018-12-31T13:29:30.087Z,22.50
2018-12-31T13:31:35.704Z,22.27
2018-12-31T13:33:43.049Z,20.97
2018-12-31T13:35:49.089Z,19.00
2018-12-31T13:37:55.214Z,22.63
2018-12-31T13:40:02.487Z,20.87
2018-12-31T13:42:07.934Z,22.70
2018-12-31T13:44:14.599Z,22.60
2018-12-31T13:46:20.255Z,21.50
2018-12-31T13:48:26.122Z,21.37
2018-12-31T13:50:31.823Z,22.50
2018-12-31T13:52:37.328Z,20.90
2018-12-31T13:54:49.367Z,23.20
2018-12-31T13:56:54.842Z,20.73
2018-12-31T13:58:59.960Z,21.00
2018-12-31T14:01:05.341Z,22.00
2018-12-31T14:03:17.193Z,23.37
2018-12-31T14:05:17.403Z,23.43
2018-12-31T14:07:22.779Z,21.90
2018-12-31T14:09:28.002Z,21.33
2018-12-31T14:11:35.610Z,21.87
2018-12-31T14:13:40.916Z,23.27
2018-12-31T14:15:46.092Z,21.43
2018-12-31T14:17:51.295Z,21.33
2018-12-31T14:19:56.434Z,22.30
2018-12-31T14:22:03.378Z,23.03
2018-12-31T14:24:08.551Z,21.83
2018-12-31T14:26:14.677Z,22.37
2018-12-31T14:28:19.703Z,23.20
2018-12-31T14:30:25.383Z,22.03
2018-12-31T14:32:30.484Z,21.57
2018-12-31T14:34:35.657Z,23.20
2018-12-31T14:36:40.924Z,22.97
2018-12-31T14:38:46.375Z,23.73
2018-12-31T14:40:51.668Z,23.60
2018-12-31T14:42:56.940Z,22.07
2018-12-31T14:45:03.184Z,20.90
2018-12-31T14:47:08.412Z,22.07
2018-12-31T14:49:14.874Z,22.17
2018-12-31T14:51:20.025Z,22.60
2018-12-31T14:53:24.847Z,23.00
2018-12-31T14:55:30.909Z,22.13
2018-12-31T14:57:36.267Z,21.37
2018-12-31T14:59:41.914Z,22.53
2018-12-31T15:01:47.566Z,22.03
2018-12-31T15:03:52.767Z,22.07
2018-12-31T15:05:57.844Z,22.27
2018-12-31T15:08:03.357Z,24.43
2018-12-31T15:10:09.020Z,22.30
2018-12-31T15:12:14.626Z,23.10
2018-12-31T15:14:20.224Z,23.93
2018-12-31T15:16:25.303Z,22.97
2018-12-31T15:18:30.994Z,23.83
2018-12-31T15:20:36.089Z,23.20
2018-12-31T15:22:41.812Z,22.30
2018-12-31T15:24:47.067Z,24.20
2018-12-31T15:26:52.209Z,24.80
2018-12-31T15:28:57.948Z,23.93
2018-12-31T15:31:03.075Z,22.20
2018-12-31T15:33:08.250Z,23.33
2018-12-31T15:35:13.617Z,24.83
2018-12-31T15:37:18.999Z,25.60
2018-12-31T15:39:24.579Z,25.40
2018-12-31T15:41:30.332Z,25.03
2018-12-31T15:43:35.302Z,24.87
2018-12-31T15:45:40.493Z,24.00
2018-12-31T15:47:46.067Z,24.37
2018-12-31T15:49:51.383Z,23.23
2018-12-31T15:51:57.310Z,24.80
2018-12-31T15:54:02.511Z,23.87
2018-12-31T15:56:07.620Z,24.63
2018-12-31T15:58:12.974Z,23.67
2018-12-31T16:00:18.105Z,22.87
2018-12-31T16:02:23.676Z,22.73
2018-12-31T16:04:28.917Z,24.40
2018-12-31T16:06:34.051Z,22.70
2018-12-31T16:08:39.196Z,24.97
2018-12-31T16:10:44.472Z,27.10
2018-12-31T16:12:49.666Z,22.20
2018-12-31T16:14:54.829Z,22.33
2018-12-31T16:16:59.915Z,23.20
2018-12-31T16:19:05.834Z,23.43
2018-12-31T16:21:11.200Z,22.50
2018-12-31T16:23:16.924Z,24.50
2018-12-31T16:25:22.382Z,22.00
2018-12-31T16:27:27.803Z,24.37
2018-12-31T16:29:33.233Z,23.30
2018-12-31T16:31:39.032Z,26.07
2018-12-31T16:33:44.447Z,25.93
2018-12-31T16:35:50.057Z,25.97
2018-12-31T16:37:55.259Z,27.40
2018-12-31T16:40:01.526Z,30.50
2018-12-31T16:42:06.952Z,31.13
2018-12-31T16:44:12.664Z,30.90
2018-12-31T16:46:17.971Z,34.60
2018-12-31T16:48:23.383Z,34.07
2018-12-31T16:50:28.927Z,32.30
2018-12-31T16:52:34.049Z,30.40
2018-12-31T16:54:41.902Z,43.03
2018-12-31T16:56:52.979Z,41.83
2018-12-31T16:58:58.282Z,35.60
2018-12-31T17:01:03.853Z,32.10
2018-12-31T17:03:11.561Z,30.20
2018-12-31T17:05:17.672Z,28.90
2018-12-31T17:07:28.139Z,26.10
2018-12-31T17:09:37.882Z,27.80
2018-12-31T17:11:43.200Z,25.90
2018-12-31T17:13:48.872Z,27.10
2018-12-31T17:15:54.266Z,26.87
2018-12-31T17:17:59.474Z,26.90
2018-12-31T17:20:04.862Z,26.10
2018-12-31T17:22:10.229Z,25.03
2018-12-31T17:24:15.489Z,24.27
2018-12-31T17:26:20.797Z,25.67
2018-12-31T17:28:26.513Z,23.47
2018-12-31T17:30:31.683Z,26.00
2018-12-31T17:32:37.531Z,24.33
2018-12-31T17:34:42.643Z,26.07
2018-12-31T17:36:47.878Z,25.97
2018-12-31T17:38:53.068Z,22.27
2018-12-31T17:40:58.249Z,24.93
2018-12-31T17:43:03.863Z,23.23
2018-12-31T17:45:09.777Z,22.63
2018-12-31T17:47:14.878Z,25.43
2018-12-31T17:49:20.006Z,23.80
2018-12-31T17:51:25.055Z,24.27
2018-12-31T17:53:30.247Z,28.33
2018-12-31T17:55:35.578Z,24.03
2018-12-31T17:57:40.943Z,27.20
2018-12-31T17:59:46.647Z,27.77
2018-12-31T18:01:51.781Z,30.63
2018-12-31T18:03:58.373Z,28.90
2018-12-31T18:06:03.790Z,30.33
2018-12-31T18:08:09.077Z,30.30
2018-12-31T18:15:02.860Z,31.17
2018-12-31T18:17:14.304Z,32.50
2018-12-31T18:26:14.501Z,33.97
2018-12-31T18:29:01.561Z,34.07
2018-12-31T18:31:06.352Z,33.50
2018-12-31T18:33:11.052Z,33.40
2018-12-31T18:35:15.810Z,39.07
2018-12-31T18:37:21.062Z,37.03
2018-12-31T18:39:25.851Z,33.90
2018-12-31T18:41:30.642Z,34.60
2018-12-31T18:43:35.682Z,36.47
2018-12-31T18:45:40.519Z,38.80
2018-12-31T18:47:45.684Z,39.50
2018-12-31T18:49:50.421Z,36.10
2018-12-31T18:51:55.872Z,35.60
2018-12-31T18:54:00.983Z,36.03
2018-12-31T18:56:05.907Z,36.80
2018-12-31T18:58:10.659Z,34.10
2018-12-31T19:00:15.458Z,33.40
2018-12-31T19:02:20.218Z,32.43
2018-12-31T19:04:24.997Z,33.93
2018-12-31T19:06:30.140Z,34.07
2018-12-31T19:08:34.971Z,32.00
2018-12-31T19:10:39.806Z,33.30
2018-12-31T19:12:44.585Z,31.67
2018-12-31T19:14:49.500Z,33.20
2018-12-31T19:16:54.248Z,33.17
2018-12-31T19:18:59.031Z,32.13
2018-12-31T19:21:04.334Z,32.50
2018-12-31T19:23:09.074Z,34.20
2018-12-31T19:25:13.877Z,32.23
2018-12-31T19:27:19.099Z,39.80
2018-12-31T19:29:23.956Z,37.17
2018-12-31T19:31:29.390Z,35.57
2018-12-31T19:33:34.537Z,36.40
2018-12-31T19:35:39.657Z,35.73
2018-12-31T19:37:44.563Z,33.97
2018-12-31T19:39:49.829Z,34.27
2018-12-31T19:41:54.545Z,30.90
2018-12-31T19:43:59.325Z,30.50
2018-12-31T19:46:04.568Z,30.13
2018-12-31T19:48:09.364Z,30.03
2018-12-31T19:50:14.563Z,30.30
2018-12-31T19:52:19.408Z,29.80
2018-12-31T19:54:24.225Z,28.17
2018-12-31T19:56:29.004Z,30.50
2018-12-31T19:58:34.153Z,28.63
2018-12-31T20:00:38.913Z,28.87
2018-12-31T20:02:43.651Z,31.33
2018-12-31T20:04:48.476Z,30.40
2018-12-31T20:07:01.039Z,36.60
2018-12-31T20:09:00.756Z,31.40
2018-12-31T20:11:05.911Z,27.60
2018-12-31T20:13:10.652Z,29.67
2018-12-31T20:15:15.389Z,28.73
2018-12-31T20:17:20.081Z,29.50
2018-12-31T20:19:25.238Z,29.70
2018-12-31T20:21:29.972Z,28.13
2018-12-31T20:23:34.720Z,27.93
2018-12-31T20:25:39.634Z,28.83
2018-12-31T20:27:44.437Z,25.80
2018-12-31T20:29:49.311Z,27.53
2018-12-31T20:31:54.034Z,27.93
2018-12-31T20:33:58.784Z,29.03
2018-12-31T20:36:03.523Z,27.83
2018-12-31T20:38:08.378Z,26.63
2018-12-31T20:40:13.141Z,27.90
2018-12-31T20:42:17.998Z,29.97
2018-12-31T20:44:22.784Z,32.10
2018-12-31T20:46:27.585Z,30.60
2018-12-31T20:48:35.058Z,31.17
2018-12-31T20:50:39.784Z,31.40
2018-12-31T20:52:44.556Z,30.63
2018-12-31T20:54:49.342Z,32.47
2018-12-31T20:56:54.503Z,30.60
2018-12-31T20:58:59.636Z,30.30
2018-12-31T21:01:04.582Z,29.87
2018-12-31T21:03:09.322Z,30.40
2018-12-31T21:05:14.097Z,29.50
2018-12-31T21:07:18.879Z,31.60
2018-12-31T21:09:24.011Z,30.83
2018-12-31T21:11:28.726Z,33.80
2018-12-31T21:13:33.479Z,31.97
2018-12-31T21:15:38.240Z,33.70
2018-12-31T21:17:43.374Z,31.83
2018-12-31T21:19:48.519Z,32.33
2018-12-31T21:21:53.258Z,31.20
2018-12-31T21:23:57.982Z,31.27
2018-12-31T21:26:03.911Z,34.30
2018-12-31T21:28:08.698Z,34.20
2018-12-31T21:30:15.458Z,34.87
2018-12-31T21:32:20.210Z,35.67
2018-12-31T21:34:25.037Z,36.30
2018-12-31T21:36:29.811Z,34.20
2018-12-31T21:38:34.957Z,34.10
2018-12-31T21:40:42.950Z,34.57
2018-12-31T21:42:48.476Z,36.90
2018-12-31T21:44:53.211Z,37.67
2018-12-31T21:46:58.364Z,35.67
2018-12-31T21:49:03.163Z,40.60
2018-12-31T21:51:07.874Z,37.77
2018-12-31T21:53:13.547Z,34.77
2018-12-31T21:55:18.278Z,35.23
2018-12-31T21:57:23.523Z,34.50
2018-12-31T21:59:28.710Z,34.83
2018-12-31T22:01:33.443Z,33.50
2018-12-31T22:03:38.263Z,34.07
2018-12-31T22:05:42.987Z,32.60
2018-12-31T22:07:47.668Z,33.07
2018-12-31T22:09:52.470Z,28.87
2018-12-31T22:11:58.009Z,32.00
2018-12-31T22:14:03.274Z,31.43
2018-12-31T22:16:08.117Z,31.77
2018-12-31T22:18:13.157Z,30.20
2018-12-31T22:20:17.925Z,31.47
2018-12-31T22:22:22.675Z,30.57
2018-12-31T22:24:27.858Z,30.07
2018-12-31T22:26:32.984Z,30.77
2018-12-31T22:28:38.145Z,31.67
2018-12-31T22:30:42.958Z,30.50
2018-12-31T22:32:47.980Z,33.37
2018-12-31T22:34:52.752Z,31.60
2018-12-31T22:36:57.504Z,31.77
2018-12-31T22:39:02.246Z,32.50
2018-12-31T22:41:07.111Z,29.90
2018-12-31T22:43:11.834Z,30.13
2018-12-31T22:45:17.423Z,31.13
2018-12-31T22:47:22.179Z,30.40
2018-12-31T22:49:27.374Z,31.63
2018-12-31T22:51:32.505Z,31.07
2018-12-31T22:53:45.717Z,30.23
2018-12-31T22:55:50.580Z,29.23
2018-12-31T22:57:57.754Z,29.90
2018-12-31T23:00:02.560Z,28.73
2018-12-31T23:02:07.807Z,31.80
2018-12-31T23:04:12.900Z,31.17
2018-12-31T23:06:17.673Z,57.17
2018-12-31T23:08:22.797Z,138.07
2018-12-31T23:10:27.753Z,123.27
2018-12-31T23:12:32.905Z,121.33
2018-12-31T23:14:38.402Z,117.27
2018-12-31T23:16:47.077Z,95.20
2018-12-31T23:18:51.791Z,80.27
2018-12-31T23:20:56.960Z,53.70
2018-12-31T23:23:01.682Z,50.20
2018-12-31T23:25:07.859Z,48.23
2018-12-31T23:27:12.961Z,54.90
2018-12-31T23:29:17.663Z,48.27
2018-12-31T23:31:22.943Z,50.00
2018-12-31T23:33:28.045Z,52.77
2018-12-31T23:35:32.830Z,55.17
2018-12-31T23:37:39.200Z,66.07
2018-12-31T23:39:43.941Z,71.37
2018-12-31T23:41:49.770Z,62.60
2018-12-31T23:43:54.544Z,67.80
2018-12-31T23:45:59.699Z,62.50
2018-12-31T23:48:06.487Z,62.47
2018-12-31T23:50:12.014Z,65.53
2018-12-31T23:52:20.126Z,68.73
2018-12-31T23:54:25.271Z,68.37
2018-12-31T23:56:30.782Z,70.60
2018-12-31T23:58:35.507Z,72.17
